sensor_id;sensor_type;location;lat;lon;timestamp;P1;durP1;ratioP1;P2;durP2;ratioP2
14903;SDS011;7543;53.148;8.234;2023-04-25T00:01:36;8.30;;;2.23;;
14903;SDS011;7543;53.148;8.234;2023-04-25T00:04:04;11.20;;;3.20;;
14903;SDS011;7543;53.148;8.234;2023-04-25T00:06:33;9.90;;;3.00;;
14903;SDS011;7543;53.148;8.234;2023-04-25T00:09:04;11.63;;;3.03;;
14903;SDS011;7543;53.148;8.234;2023-04-25T00:11:34;11.17;;;2.43;;
14903;SDS011;7543;53.148;8.234;2023-04-25T00:14:03;9.23;;;2.60;;
14903;SDS011;7543;53.148;8.234;2023-04-25T00:16:33;12.27;;;2.50;;
14903;SDS011;7543;53.148;8.234;2023-04-25T00:19:02;9.57;;;2.70;;
14903;SDS011;7543;53.148;8.234;2023-04-25T00:21:31;4.77;;;2.17;;
14903;SDS011;7543;53.148;8.234;2023-04-25T00:23:59;12.70;;;3.00;;
14903;SDS011;7543;53.148;8.234;2023-04-25T00:26:29;8.87;;;2.73;;
14903;SDS011;7543;53.148;8.234;2023-04-25T00:28:57;11.00;;;2.30;;
14903;SDS011;7543;53.148;8.234;2023-04-25T00:31:26;15.80;;;2.07;;
14903;SDS011;7543;53.148;8.234;2023-04-25T00:33:55;11.63;;;2.50;;
14903;SDS011;7543;53.148;8.234;2023-04-25T00:36:24;10.67;;;2.93;;
14903;SDS011;7543;53.148;8.234;2023-04-25T00:38:53;14.10;;;2.90;;
14903;SDS011;7543;53.148;8.234;2023-04-25T00:41:22;9.77;;;2.80;;
14903;SDS011;7543;53.148;8.234;2023-04-25T00:43:53;7.97;;;2.50;;
14903;SDS011;7543;53.148;8.234;2023-04-25T00:46:22;11.47;;;2.63;;
14903;SDS011;7543;53.148;8.234;2023-04-25T00:48:51;8.57;;;2.67;;
14903;SDS011;7543;53.148;8.234;2023-04-25T00:51:19;13.63;;;2.40;;
14903;SDS011;7543;53.148;8.234;2023-04-25T00:53:48;18.10;;;3.80;;
14903;SDS011;7543;53.148;8.234;2023-04-25T00:56:17;11.03;;;2.37;;
14903;SDS011;7543;53.148;8.234;2023-04-25T00:58:46;9.97;;;3.10;;
14903;SDS011;7543;53.148;8.234;2023-04-25T01:01:17;10.17;;;2.13;;
14903;SDS011;7543;53.148;8.234;2023-04-25T01:03:46;13.30;;;2.87;;
14903;SDS011;7543;53.148;8.234;2023-04-25T01:06:16;11.27;;;2.60;;
14903;SDS011;7543;53.148;8.234;2023-04-25T01:08:44;12.33;;;2.83;;
14903;SDS011;7543;53.148;8.234;2023-04-25T01:11:13;9.27;;;2.50;;
14903;SDS011;7543;53.148;8.234;2023-04-25T01:13:41;12.20;;;2.23;;
14903;SDS011;7543;53.148;8.234;2023-04-25T01:16:10;12.93;;;2.63;;
14903;SDS011;7543;53.148;8.234;2023-04-25T01:18:40;8.73;;;2.77;;
14903;SDS011;7543;53.148;8.234;2023-04-25T01:21:10;14.00;;;3.67;;
14903;SDS011;7543;53.148;8.234;2023-04-25T01:23:40;9.93;;;2.83;;
14903;SDS011;7543;53.148;8.234;2023-04-25T01:26:09;11.40;;;2.63;;
14903;SDS011;7543;53.148;8.234;2023-04-25T01:28:39;5.53;;;2.30;;
14903;SDS011;7543;53.148;8.234;2023-04-25T01:31:09;13.07;;;2.83;;
14903;SDS011;7543;53.148;8.234;2023-04-25T01:33:38;13.73;;;2.87;;
14903;SDS011;7543;53.148;8.234;2023-04-25T01:36:07;7.07;;;2.23;;
14903;SDS011;7543;53.148;8.234;2023-04-25T01:38:37;8.77;;;2.40;;
14903;SDS011;7543;53.148;8.234;2023-04-25T01:41:07;6.53;;;1.80;;
14903;SDS011;7543;53.148;8.234;2023-04-25T01:43:35;8.37;;;2.10;;
14903;SDS011;7543;53.148;8.234;2023-04-25T01:46:04;8.87;;;2.37;;
14903;SDS011;7543;53.148;8.234;2023-04-25T01:48:32;6.77;;;2.40;;
14903;SDS011;7543;53.148;8.234;2023-04-25T01:51:00;11.90;;;2.30;;
14903;SDS011;7543;53.148;8.234;2023-04-25T01:53:30;6.17;;;1.83;;
14903;SDS011;7543;53.148;8.234;2023-04-25T01:56:00;9.93;;;2.27;;
14903;SDS011;7543;53.148;8.234;2023-04-25T01:58:33;7.83;;;2.03;;
14903;SDS011;7543;53.148;8.234;2023-04-25T02:01:20;9.40;;;2.30;;
14903;SDS011;7543;53.148;8.234;2023-04-25T02:04:03;6.20;;;1.83;;
14903;SDS011;7543;53.148;8.234;2023-04-25T02:06:36;6.60;;;2.27;;
14903;SDS011;7543;53.148;8.234;2023-04-25T02:09:04;20.13;;;2.67;;
14903;SDS011;7543;53.148;8.234;2023-04-25T02:11:34;11.17;;;2.47;;
14903;SDS011;7543;53.148;8.234;2023-04-25T02:14:22;8.43;;;2.43;;
14903;SDS011;7543;53.148;8.234;2023-04-25T02:17:04;7.57;;;2.30;;
14903;SDS011;7543;53.148;8.234;2023-04-25T02:19:32;10.03;;;2.57;;
14903;SDS011;7543;53.148;8.234;2023-04-25T02:22:01;10.90;;;2.43;;
14903;SDS011;7543;53.148;8.234;2023-04-25T02:24:29;11.53;;;2.70;;
14903;SDS011;7543;53.148;8.234;2023-04-25T02:27:00;8.43;;;2.47;;
14903;SDS011;7543;53.148;8.234;2023-04-25T02:29:28;6.97;;;2.37;;
14903;SDS011;7543;53.148;8.234;2023-04-25T02:31:57;10.30;;;2.50;;
14903;SDS011;7543;53.148;8.234;2023-04-25T02:34:26;7.80;;;2.27;;
14903;SDS011;7543;53.148;8.234;2023-04-25T02:36:55;10.87;;;1.90;;
14903;SDS011;7543;53.148;8.234;2023-04-25T02:39:23;7.87;;;2.57;;
14903;SDS011;7543;53.148;8.234;2023-04-25T02:41:52;10.27;;;2.33;;
14903;SDS011;7543;53.148;8.234;2023-04-25T02:44:23;7.63;;;2.20;;
14903;SDS011;7543;53.148;8.234;2023-04-25T02:46:51;12.27;;;2.30;;
14903;SDS011;7543;53.148;8.234;2023-04-25T02:49:20;6.73;;;2.30;;
14903;SDS011;7543;53.148;8.234;2023-04-25T02:51:48;6.83;;;2.23;;
14903;SDS011;7543;53.148;8.234;2023-04-25T02:54:16;6.10;;;1.87;;
14903;SDS011;7543;53.148;8.234;2023-04-25T02:56:47;8.70;;;1.97;;
14903;SDS011;7543;53.148;8.234;2023-04-25T02:59:24;7.20;;;1.97;;
14903;SDS011;7543;53.148;8.234;2023-04-25T03:01:52;10.37;;;2.37;;
14903;SDS011;7543;53.148;8.234;2023-04-25T03:04:22;5.57;;;1.60;;
14903;SDS011;7543;53.148;8.234;2023-04-25T03:06:51;6.97;;;2.03;;
14903;SDS011;7543;53.148;8.234;2023-04-25T03:09:21;4.87;;;1.90;;
14903;SDS011;7543;53.148;8.234;2023-04-25T03:11:50;5.17;;;1.90;;
14903;SDS011;7543;53.148;8.234;2023-04-25T03:14:19;13.37;;;2.47;;
14903;SDS011;7543;53.148;8.234;2023-04-25T03:16:48;9.10;;;2.60;;
14903;SDS011;7543;53.148;8.234;2023-04-25T03:19:17;6.13;;;1.80;;
14903;SDS011;7543;53.148;8.234;2023-04-25T03:21:48;12.47;;;2.50;;
14903;SDS011;7543;53.148;8.234;2023-04-25T03:24:16;8.90;;;2.13;;
14903;SDS011;7543;53.148;8.234;2023-04-25T03:26:44;14.67;;;2.07;;
14903;SDS011;7543;53.148;8.234;2023-04-25T03:29:13;5.27;;;2.30;;
14903;SDS011;7543;53.148;8.234;2023-04-25T03:31:43;8.57;;;1.80;;
14903;SDS011;7543;53.148;8.234;2023-04-25T03:34:12;3.50;;;1.80;;
14903;SDS011;7543;53.148;8.234;2023-04-25T03:36:42;11.47;;;2.27;;
14903;SDS011;7543;53.148;8.234;2023-04-25T03:39:14;6.40;;;1.67;;
14903;SDS011;7543;53.148;8.234;2023-04-25T03:41:47;5.23;;;1.90;;
14903;SDS011;7543;53.148;8.234;2023-04-25T03:44:17;5.77;;;1.67;;
14903;SDS011;7543;53.148;8.234;2023-04-25T03:46:46;8.83;;;1.73;;
14903;SDS011;7543;53.148;8.234;2023-04-25T03:49:17;7.53;;;1.87;;
14903;SDS011;7543;53.148;8.234;2023-04-25T03:51:57;7.70;;;2.30;;
14903;SDS011;7543;53.148;8.234;2023-04-25T03:54:25;8.37;;;2.07;;
14903;SDS011;7543;53.148;8.234;2023-04-25T03:57:03;4.30;;;1.77;;
14903;SDS011;7543;53.148;8.234;2023-04-25T03:59:35;6.27;;;1.87;;
14903;SDS011;7543;53.148;8.234;2023-04-25T04:02:03;8.13;;;1.90;;
14903;SDS011;7543;53.148;8.234;2023-04-25T04:04:36;9.80;;;2.10;;
14903;SDS011;7543;53.148;8.234;2023-04-25T04:07:04;7.80;;;2.20;;
14903;SDS011;7543;53.148;8.234;2023-04-25T04:09:36;8.53;;;2.17;;
14903;SDS011;7543;53.148;8.234;2023-04-25T04:12:12;4.60;;;1.80;;
14903;SDS011;7543;53.148;8.234;2023-04-25T04:14:42;9.03;;;2.20;;
14903;SDS011;7543;53.148;8.234;2023-04-25T04:17:10;5.27;;;1.50;;
14903;SDS011;7543;53.148;8.234;2023-04-25T04:19:40;3.80;;;1.40;;
14903;SDS011;7543;53.148;8.234;2023-04-25T04:22:15;8.33;;;1.47;;
14903;SDS011;7543;53.148;8.234;2023-04-25T04:24:44;8.63;;;1.87;;
14903;SDS011;7543;53.148;8.234;2023-04-25T04:27:21;6.03;;;1.60;;
14903;SDS011;7543;53.148;8.234;2023-04-25T04:29:54;10.33;;;2.00;;
14903;SDS011;7543;53.148;8.234;2023-04-25T04:32:30;10.50;;;2.43;;
14903;SDS011;7543;53.148;8.234;2023-04-25T04:35:01;5.50;;;1.63;;
14903;SDS011;7543;53.148;8.234;2023-04-25T04:37:31;3.13;;;1.40;;
14903;SDS011;7543;53.148;8.234;2023-04-25T04:40:00;6.30;;;1.80;;
14903;SDS011;7543;53.148;8.234;2023-04-25T04:42:58;4.30;;;1.40;;
14903;SDS011;7543;53.148;8.234;2023-04-25T04:45:39;4.20;;;1.60;;
14903;SDS011;7543;53.148;8.234;2023-04-25T04:48:43;6.87;;;1.67;;
14903;SDS011;7543;53.148;8.234;2023-04-25T04:51:32;8.13;;;1.80;;
14903;SDS011;7543;53.148;8.234;2023-04-25T04:54:07;5.03;;;1.93;;
14903;SDS011;7543;53.148;8.234;2023-04-25T04:57:05;5.67;;;1.47;;
14903;SDS011;7543;53.148;8.234;2023-04-25T04:59:56;3.87;;;1.50;;
14903;SDS011;7543;53.148;8.234;2023-04-25T05:02:43;7.97;;;1.60;;
14903;SDS011;7543;53.148;8.234;2023-04-25T05:05:33;9.30;;;1.60;;
14903;SDS011;7543;53.148;8.234;2023-04-25T05:08:05;3.37;;;1.07;;
14903;SDS011;7543;53.148;8.234;2023-04-25T05:10:52;7.83;;;1.83;;
14903;SDS011;7543;53.148;8.234;2023-04-25T05:13:35;7.20;;;1.60;;
14903;SDS011;7543;53.148;8.234;2023-04-25T05:16:38;9.93;;;1.73;;
14903;SDS011;7543;53.148;8.234;2023-04-25T05:19:25;6.53;;;1.30;;
14903;SDS011;7543;53.148;8.234;2023-04-25T05:22:20;8.80;;;2.53;;
14903;SDS011;7543;53.148;8.234;2023-04-25T05:25:10;5.47;;;1.60;;
14903;SDS011;7543;53.148;8.234;2023-04-25T05:27:55;12.03;;;1.87;;
14903;SDS011;7543;53.148;8.234;2023-04-25T05:30:44;3.03;;;1.40;;
14903;SDS011;7543;53.148;8.234;2023-04-25T05:33:18;3.43;;;1.30;;
14903;SDS011;7543;53.148;8.234;2023-04-25T05:35:47;6.97;;;1.60;;
14903;SDS011;7543;53.148;8.234;2023-04-25T05:38:15;6.17;;;1.50;;
14903;SDS011;7543;53.148;8.234;2023-04-25T05:41:23;5.33;;;1.40;;
14903;SDS011;7543;53.148;8.234;2023-04-25T05:44:30;4.20;;;1.40;;
14903;SDS011;7543;53.148;8.234;2023-04-25T05:47:17;4.43;;;1.10;;
14903;SDS011;7543;53.148;8.234;2023-04-25T05:50:01;6.20;;;1.70;;
14903;SDS011;7543;53.148;8.234;2023-04-25T05:52:52;5.80;;;1.80;;
14903;SDS011;7543;53.148;8.234;2023-04-25T05:55:38;2.67;;;1.30;;
14903;SDS011;7543;53.148;8.234;2023-04-25T05:58:37;5.37;;;1.60;;
14903;SDS011;7543;53.148;8.234;2023-04-25T06:01:05;4.20;;;1.43;;
14903;SDS011;7543;53.148;8.234;2023-04-25T06:03:34;4.97;;;1.60;;
14903;SDS011;7543;53.148;8.234;2023-04-25T06:06:05;8.00;;;1.90;;
14903;SDS011;7543;53.148;8.234;2023-04-25T06:08:33;6.70;;;1.60;;
14903;SDS011;7543;53.148;8.234;2023-04-25T06:11:01;8.03;;;1.40;;
14903;SDS011;7543;53.148;8.234;2023-04-25T06:13:30;3.53;;;1.50;;
14903;SDS011;7543;53.148;8.234;2023-04-25T06:15:59;4.53;;;1.80;;
14903;SDS011;7543;53.148;8.234;2023-04-25T06:18:29;8.20;;;1.37;;
14903;SDS011;7543;53.148;8.234;2023-04-25T06:20:57;4.13;;;1.30;;
14903;SDS011;7543;53.148;8.234;2023-04-25T06:23:26;6.70;;;1.50;;
14903;SDS011;7543;53.148;8.234;2023-04-25T06:26:03;6.40;;;1.63;;
14903;SDS011;7543;53.148;8.234;2023-04-25T06:28:33;5.53;;;1.27;;
14903;SDS011;7543;53.148;8.234;2023-04-25T06:31:03;5.37;;;1.80;;
14903;SDS011;7543;53.148;8.234;2023-04-25T06:33:31;6.43;;;1.67;;
14903;SDS011;7543;53.148;8.234;2023-04-25T06:36:00;5.90;;;1.60;;
14903;SDS011;7543;53.148;8.234;2023-04-25T06:38:29;5.83;;;1.50;;
14903;SDS011;7543;53.148;8.234;2023-04-25T06:40:58;5.97;;;1.47;;
14903;SDS011;7543;53.148;8.234;2023-04-25T06:43:31;4.77;;;1.43;;
14903;SDS011;7543;53.148;8.234;2023-04-25T06:46:25;5.43;;;1.40;;
14903;SDS011;7543;53.148;8.234;2023-04-25T06:48:55;3.80;;;1.30;;
14903;SDS011;7543;53.148;8.234;2023-04-25T06:51:24;3.27;;;1.40;;
14903;SDS011;7543;53.148;8.234;2023-04-25T06:53:55;5.20;;;1.67;;
14903;SDS011;7543;53.148;8.234;2023-04-25T06:56:29;6.27;;;1.67;;
14903;SDS011;7543;53.148;8.234;2023-04-25T06:59:04;5.17;;;1.37;;
14903;SDS011;7543;53.148;8.234;2023-04-25T07:01:42;5.90;;;1.30;;
14903;SDS011;7543;53.148;8.234;2023-04-25T07:04:20;8.50;;;1.60;;
14903;SDS011;7543;53.148;8.234;2023-04-25T07:06:56;6.03;;;1.83;;
14903;SDS011;7543;53.148;8.234;2023-04-25T07:09:36;6.10;;;1.20;;
14903;SDS011;7543;53.148;8.234;2023-04-25T07:12:05;5.87;;;1.40;;
14903;SDS011;7543;53.148;8.234;2023-04-25T07:14:34;7.40;;;1.40;;
14903;SDS011;7543;53.148;8.234;2023-04-25T07:17:05;5.63;;;1.40;;
14903;SDS011;7543;53.148;8.234;2023-04-25T07:19:34;6.73;;;1.43;;
14903;SDS011;7543;53.148;8.234;2023-04-25T07:22:04;3.87;;;1.40;;
14903;SDS011;7543;53.148;8.234;2023-04-25T07:24:33;7.53;;;1.57;;
14903;SDS011;7543;53.148;8.234;2023-04-25T07:27:02;4.40;;;1.17;;
14903;SDS011;7543;53.148;8.234;2023-04-25T07:29:46;5.93;;;1.20;;
14903;SDS011;7543;53.148;8.234;2023-04-25T07:32:16;3.23;;;1.20;;
14903;SDS011;7543;53.148;8.234;2023-04-25T07:34:44;6.57;;;1.63;;
14903;SDS011;7543;53.148;8.234;2023-04-25T07:37:12;7.40;;;1.57;;
14903;SDS011;7543;53.148;8.234;2023-04-25T07:39:55;1.70;;;0.93;;
14903;SDS011;7543;53.148;8.234;2023-04-25T07:42:24;5.13;;;1.67;;
14903;SDS011;7543;53.148;8.234;2023-04-25T07:44:52;3.57;;;1.00;;
14903;SDS011;7543;53.148;8.234;2023-04-25T07:47:22;3.53;;;1.00;;
14903;SDS011;7543;53.148;8.234;2023-04-25T07:49:51;2.83;;;1.13;;
14903;SDS011;7543;53.148;8.234;2023-04-25T07:52:19;3.90;;;1.37;;
14903;SDS011;7543;53.148;8.234;2023-04-25T07:54:53;2.43;;;0.90;;
14903;SDS011;7543;53.148;8.234;2023-04-25T07:57:28;4.70;;;0.93;;
14903;SDS011;7543;53.148;8.234;2023-04-25T08:00:00;4.80;;;0.83;;
14903;SDS011;7543;53.148;8.234;2023-04-25T08:02:52;2.93;;;0.80;;
14903;SDS011;7543;53.148;8.234;2023-04-25T08:05:21;2.20;;;0.80;;
14903;SDS011;7543;53.148;8.234;2023-04-25T08:07:57;1.07;;;0.70;;
14903;SDS011;7543;53.148;8.234;2023-04-25T08:10:27;1.27;;;0.60;;
14903;SDS011;7543;53.148;8.234;2023-04-25T08:12:56;1.33;;;0.67;;
14903;SDS011;7543;53.148;8.234;2023-04-25T08:15:24;3.20;;;0.90;;
14903;SDS011;7543;53.148;8.234;2023-04-25T08:17:54;8.20;;;1.27;;
14903;SDS011;7543;53.148;8.234;2023-04-25T08:20:23;3.37;;;1.20;;
14903;SDS011;7543;53.148;8.234;2023-04-25T08:22:54;5.03;;;1.20;;
14903;SDS011;7543;53.148;8.234;2023-04-25T08:25:41;3.27;;;1.57;;
14903;SDS011;7543;53.148;8.234;2023-04-25T08:28:12;4.07;;;1.27;;
14903;SDS011;7543;53.148;8.234;2023-04-25T08:30:40;2.83;;;0.80;;
14903;SDS011;7543;53.148;8.234;2023-04-25T08:33:13;4.80;;;1.00;;
14903;SDS011;7543;53.148;8.234;2023-04-25T08:35:47;2.40;;;1.10;;
14903;SDS011;7543;53.148;8.234;2023-04-25T08:38:16;6.03;;;1.30;;
14903;SDS011;7543;53.148;8.234;2023-04-25T08:40:45;2.50;;;0.93;;
14903;SDS011;7543;53.148;8.234;2023-04-25T08:43:18;3.33;;;1.17;;
14903;SDS011;7543;53.148;8.234;2023-04-25T08:45:47;2.97;;;0.80;;
14903;SDS011;7543;53.148;8.234;2023-04-25T08:48:36;1.47;;;0.80;;
14903;SDS011;7543;53.148;8.234;2023-04-25T08:51:05;1.67;;;0.53;;
14903;SDS011;7543;53.148;8.234;2023-04-25T08:53:35;2.23;;;0.80;;
14903;SDS011;7543;53.148;8.234;2023-04-25T08:56:05;2.20;;;0.60;;
14903;SDS011;7543;53.148;8.234;2023-04-25T08:58:37;3.27;;;0.63;;
14903;SDS011;7543;53.148;8.234;2023-04-25T09:01:06;2.57;;;0.93;;
14903;SDS011;7543;53.148;8.234;2023-04-25T09:03:44;2.40;;;0.80;;
14903;SDS011;7543;53.148;8.234;2023-04-25T09:06:13;1.67;;;0.90;;
14903;SDS011;7543;53.148;8.234;2023-04-25T09:08:43;2.97;;;1.33;;
14903;SDS011;7543;53.148;8.234;2023-04-25T09:11:11;5.10;;;0.83;;
14903;SDS011;7543;53.148;8.234;2023-04-25T09:13:41;5.27;;;1.10;;
14903;SDS011;7543;53.148;8.234;2023-04-25T09:16:23;2.17;;;0.87;;
14903;SDS011;7543;53.148;8.234;2023-04-25T09:19:18;2.23;;;0.87;;
14903;SDS011;7543;53.148;8.234;2023-04-25T09:21:49;4.07;;;1.00;;
14903;SDS011;7543;53.148;8.234;2023-04-25T09:24:19;2.53;;;1.13;;
14903;SDS011;7543;53.148;8.234;2023-04-25T09:26:58;6.33;;;1.37;;
14903;SDS011;7543;53.148;8.234;2023-04-25T09:29:28;4.73;;;1.37;;
14903;SDS011;7543;53.148;8.234;2023-04-25T09:34:50;3.53;;;0.97;;
14903;SDS011;7543;53.148;8.234;2023-04-25T09:37:21;2.00;;;0.90;;
14903;SDS011;7543;53.148;8.234;2023-04-25T09:40:06;2.77;;;0.90;;
14903;SDS011;7543;53.148;8.234;2023-04-25T09:42:49;1.60;;;0.67;;
14903;SDS011;7543;53.148;8.234;2023-04-25T09:45:18;1.40;;;0.67;;
14903;SDS011;7543;53.148;8.234;2023-04-25T09:47:48;5.80;;;0.93;;
14903;SDS011;7543;53.148;8.234;2023-04-25T09:50:23;4.33;;;0.87;;
14903;SDS011;7543;53.148;8.234;2023-04-25T09:53:03;3.77;;;0.80;;
14903;SDS011;7543;53.148;8.234;2023-04-25T09:55:44;5.53;;;0.87;;
14903;SDS011;7543;53.148;8.234;2023-04-25T09:58:14;2.37;;;0.70;;
14903;SDS011;7543;53.148;8.234;2023-04-25T10:00:43;1.03;;;0.70;;
14903;SDS011;7543;53.148;8.234;2023-04-25T10:03:24;3.87;;;0.90;;
14903;SDS011;7543;53.148;8.234;2023-04-25T10:06:12;1.67;;;0.90;;
14903;SDS011;7543;53.148;8.234;2023-04-25T10:08:43;1.53;;;0.67;;
14903;SDS011;7543;53.148;8.234;2023-04-25T10:11:12;5.33;;;0.80;;
14903;SDS011;7543;53.148;8.234;2023-04-25T10:13:42;2.97;;;0.93;;
14903;SDS011;7543;53.148;8.234;2023-04-25T10:16:11;7.40;;;0.80;;
14903;SDS011;7543;53.148;8.234;2023-04-25T10:18:39;1.27;;;0.60;;
14903;SDS011;7543;53.148;8.234;2023-04-25T10:21:07;2.13;;;0.73;;
14903;SDS011;7543;53.148;8.234;2023-04-25T10:23:37;2.47;;;0.60;;
14903;SDS011;7543;53.148;8.234;2023-04-25T10:26:06;2.30;;;1.00;;
14903;SDS011;7543;53.148;8.234;2023-04-25T10:28:54;1.93;;;0.83;;
14903;SDS011;7543;53.148;8.234;2023-04-25T10:31:23;1.60;;;0.70;;
14903;SDS011;7543;53.148;8.234;2023-04-25T10:33:51;5.13;;;0.73;;
14903;SDS011;7543;53.148;8.234;2023-04-25T10:36:21;1.43;;;0.50;;
14903;SDS011;7543;53.148;8.234;2023-04-25T10:38:50;3.43;;;0.70;;
14903;SDS011;7543;53.148;8.234;2023-04-25T10:41:19;3.03;;;1.07;;
14903;SDS011;7543;53.148;8.234;2023-04-25T10:43:49;3.77;;;1.00;;
14903;SDS011;7543;53.148;8.234;2023-04-25T10:46:28;2.40;;;1.00;;
14903;SDS011;7543;53.148;8.234;2023-04-25T10:48:58;1.37;;;0.60;;
14903;SDS011;7543;53.148;8.234;2023-04-25T10:51:30;1.50;;;0.83;;
14903;SDS011;7543;53.148;8.234;2023-04-25T10:54:00;1.80;;;0.70;;
14903;SDS011;7543;53.148;8.234;2023-04-25T10:56:30;4.40;;;1.20;;
14903;SDS011;7543;53.148;8.234;2023-04-25T10:59:06;3.63;;;1.43;;
14903;SDS011;7543;53.148;8.234;2023-04-25T11:01:37;2.07;;;0.80;;
14903;SDS011;7543;53.148;8.234;2023-04-25T11:04:19;5.70;;;1.10;;
14903;SDS011;7543;53.148;8.234;2023-04-25T11:06:54;6.07;;;1.20;;
14903;SDS011;7543;53.148;8.234;2023-04-25T11:09:27;0.90;;;0.40;;
14903;SDS011;7543;53.148;8.234;2023-04-25T11:11:55;2.67;;;0.83;;
14903;SDS011;7543;53.148;8.234;2023-04-25T11:14:25;3.33;;;0.87;;
14903;SDS011;7543;53.148;8.234;2023-04-25T11:16:53;3.97;;;1.10;;
14903;SDS011;7543;53.148;8.234;2023-04-25T11:19:23;5.53;;;0.83;;
14903;SDS011;7543;53.148;8.234;2023-04-25T11:21:56;4.87;;;1.00;;
14903;SDS011;7543;53.148;8.234;2023-04-25T11:24:25;3.90;;;1.00;;
14903;SDS011;7543;53.148;8.234;2023-04-25T11:26:54;3.87;;;0.90;;
14903;SDS011;7543;53.148;8.234;2023-04-25T11:29:22;5.50;;;0.83;;
14903;SDS011;7543;53.148;8.234;2023-04-25T11:31:51;4.17;;;1.13;;
14903;SDS011;7543;53.148;8.234;2023-04-25T11:34:20;3.37;;;1.00;;
14903;SDS011;7543;53.148;8.234;2023-04-25T11:36:48;3.37;;;0.90;;
14903;SDS011;7543;53.148;8.234;2023-04-25T11:39:18;1.73;;;0.70;;
14903;SDS011;7543;53.148;8.234;2023-04-25T11:41:47;6.20;;;0.87;;
14903;SDS011;7543;53.148;8.234;2023-04-25T11:44:16;1.03;;;0.77;;
14903;SDS011;7543;53.148;8.234;2023-04-25T11:46:44;4.57;;;1.00;;
14903;SDS011;7543;53.148;8.234;2023-04-25T11:49:13;1.70;;;0.93;;
14903;SDS011;7543;53.148;8.234;2023-04-25T11:51:42;2.40;;;1.00;;
14903;SDS011;7543;53.148;8.234;2023-04-25T11:54:12;6.73;;;1.27;;
14903;SDS011;7543;53.148;8.234;2023-04-25T11:56:42;4.57;;;0.90;;
14903;SDS011;7543;53.148;8.234;2023-04-25T11:59:12;4.97;;;0.83;;
14903;SDS011;7543;53.148;8.234;2023-04-25T12:01:41;2.60;;;0.80;;
14903;SDS011;7543;53.148;8.234;2023-04-25T12:04:17;3.80;;;1.07;;
14903;SDS011;7543;53.148;8.234;2023-04-25T12:06:46;2.67;;;1.17;;
14903;SDS011;7543;53.148;8.234;2023-04-25T12:09:18;2.50;;;1.13;;
14903;SDS011;7543;53.148;8.234;2023-04-25T12:11:52;2.27;;;0.73;;
14903;SDS011;7543;53.148;8.234;2023-04-25T12:14:22;4.33;;;1.20;;
14903;SDS011;7543;53.148;8.234;2023-04-25T12:16:51;2.97;;;1.00;;
14903;SDS011;7543;53.148;8.234;2023-04-25T12:19:20;3.07;;;0.83;;
14903;SDS011;7543;53.148;8.234;2023-04-25T12:21:49;6.63;;;0.90;;
14903;SDS011;7543;53.148;8.234;2023-04-25T12:24:18;4.70;;;1.17;;
14903;SDS011;7543;53.148;8.234;2023-04-25T12:26:52;1.80;;;0.60;;
14903;SDS011;7543;53.148;8.234;2023-04-25T12:29:21;2.53;;;0.60;;
14903;SDS011;7543;53.148;8.234;2023-04-25T12:31:51;0.90;;;0.53;;
14903;SDS011;7543;53.148;8.234;2023-04-25T12:34:20;3.40;;;1.07;;
14903;SDS011;7543;53.148;8.234;2023-04-25T12:36:49;4.20;;;0.93;;
14903;SDS011;7543;53.148;8.234;2023-04-25T12:39:18;3.67;;;0.80;;
14903;SDS011;7543;53.148;8.234;2023-04-25T12:41:48;3.80;;;0.90;;
14903;SDS011;7543;53.148;8.234;2023-04-25T12:44:18;2.73;;;0.70;;
14903;SDS011;7543;53.148;8.234;2023-04-25T12:46:47;2.83;;;1.13;;
14903;SDS011;7543;53.148;8.234;2023-04-25T12:49:15;2.70;;;1.00;;
14903;SDS011;7543;53.148;8.234;2023-04-25T12:51:44;1.87;;;0.80;;
14903;SDS011;7543;53.148;8.234;2023-04-25T12:54:12;4.57;;;0.70;;
14903;SDS011;7543;53.148;8.234;2023-04-25T12:56:41;1.00;;;0.53;;
14903;SDS011;7543;53.148;8.234;2023-04-25T12:59:09;0.53;;;0.40;;
14903;SDS011;7543;53.148;8.234;2023-04-25T13:01:39;1.23;;;0.60;;
14903;SDS011;7543;53.148;8.234;2023-04-25T13:04:07;1.43;;;0.77;;
14903;SDS011;7543;53.148;8.234;2023-04-25T13:06:35;1.47;;;0.50;;
14903;SDS011;7543;53.148;8.234;2023-04-25T13:09:04;1.67;;;0.50;;
14903;SDS011;7543;53.148;8.234;2023-04-25T13:11:33;2.67;;;0.97;;
14903;SDS011;7543;53.148;8.234;2023-04-25T13:14:02;3.00;;;0.90;;
14903;SDS011;7543;53.148;8.234;2023-04-25T13:16:30;6.07;;;1.00;;
14903;SDS011;7543;53.148;8.234;2023-04-25T13:19:00;6.83;;;1.00;;
14903;SDS011;7543;53.148;8.234;2023-04-25T13:21:29;4.43;;;1.20;;
14903;SDS011;7543;53.148;8.234;2023-04-25T13:23:58;1.87;;;0.87;;
14903;SDS011;7543;53.148;8.234;2023-04-25T13:26:27;3.27;;;0.80;;
14903;SDS011;7543;53.148;8.234;2023-04-25T13:28:55;3.20;;;0.60;;
14903;SDS011;7543;53.148;8.234;2023-04-25T13:31:23;4.17;;;0.80;;
14903;SDS011;7543;53.148;8.234;2023-04-25T13:33:52;1.67;;;0.80;;
14903;SDS011;7543;53.148;8.234;2023-04-25T13:36:22;1.57;;;0.80;;
14903;SDS011;7543;53.148;8.234;2023-04-25T13:38:51;2.03;;;0.83;;
14903;SDS011;7543;53.148;8.234;2023-04-25T13:41:19;2.47;;;1.20;;
14903;SDS011;7543;53.148;8.234;2023-04-25T13:43:48;1.83;;;1.10;;
14903;SDS011;7543;53.148;8.234;2023-04-25T13:46:16;7.13;;;1.07;;
14903;SDS011;7543;53.148;8.234;2023-04-25T13:48:44;4.40;;;1.03;;
14903;SDS011;7543;53.148;8.234;2023-04-25T13:51:15;3.23;;;1.00;;
14903;SDS011;7543;53.148;8.234;2023-04-25T13:53:45;4.27;;;1.17;;
14903;SDS011;7543;53.148;8.234;2023-04-25T13:56:13;1.53;;;0.90;;
14903;SDS011;7543;53.148;8.234;2023-04-25T13:58:42;2.30;;;0.80;;
14903;SDS011;7543;53.148;8.234;2023-04-25T14:01:10;2.20;;;0.70;;
14903;SDS011;7543;53.148;8.234;2023-04-25T14:03:38;2.00;;;0.60;;
14903;SDS011;7543;53.148;8.234;2023-04-25T14:06:08;5.03;;;1.00;;
14903;SDS011;7543;53.148;8.234;2023-04-25T14:08:36;4.30;;;1.17;;
14903;SDS011;7543;53.148;8.234;2023-04-25T14:11:06;1.43;;;0.70;;
14903;SDS011;7543;53.148;8.234;2023-04-25T14:13:34;1.00;;;0.77;;
14903;SDS011;7543;53.148;8.234;2023-04-25T14:16:02;3.83;;;0.83;;
14903;SDS011;7543;53.148;8.234;2023-04-25T14:18:32;2.57;;;0.83;;
14903;SDS011;7543;53.148;8.234;2023-04-25T14:21:00;2.80;;;1.00;;
14903;SDS011;7543;53.148;8.234;2023-04-25T14:23:28;3.23;;;0.80;;
14903;SDS011;7543;53.148;8.234;2023-04-25T14:25:57;2.40;;;0.97;;
14903;SDS011;7543;53.148;8.234;2023-04-25T14:28:26;2.57;;;1.07;;
14903;SDS011;7543;53.148;8.234;2023-04-25T14:30:55;4.03;;;1.07;;
14903;SDS011;7543;53.148;8.234;2023-04-25T14:33:23;1.37;;;0.77;;
14903;SDS011;7543;53.148;8.234;2023-04-25T14:35:51;1.20;;;0.67;;
14903;SDS011;7543;53.148;8.234;2023-04-25T14:38:20;1.63;;;0.87;;
14903;SDS011;7543;53.148;8.234;2023-04-25T14:40:50;3.20;;;1.20;;
14903;SDS011;7543;53.148;8.234;2023-04-25T14:43:18;2.60;;;0.70;;
14903;SDS011;7543;53.148;8.234;2023-04-25T14:45:48;3.07;;;0.90;;
14903;SDS011;7543;53.148;8.234;2023-04-25T14:48:17;3.83;;;0.90;;
14903;SDS011;7543;53.148;8.234;2023-04-25T14:50:46;4.17;;;1.10;;
14903;SDS011;7543;53.148;8.234;2023-04-25T14:53:17;3.83;;;1.10;;
14903;SDS011;7543;53.148;8.234;2023-04-25T14:55:45;5.20;;;1.17;;
14903;SDS011;7543;53.148;8.234;2023-04-25T14:58:14;4.50;;;0.83;;
14903;SDS011;7543;53.148;8.234;2023-04-25T15:00:43;2.10;;;0.87;;
14903;SDS011;7543;53.148;8.234;2023-04-25T15:03:13;1.90;;;0.80;;
14903;SDS011;7543;53.148;8.234;2023-04-25T15:05:43;7.03;;;1.27;;
14903;SDS011;7543;53.148;8.234;2023-04-25T15:08:11;6.93;;;1.20;;
14903;SDS011;7543;53.148;8.234;2023-04-25T15:10:40;1.00;;;0.73;;
14903;SDS011;7543;53.148;8.234;2023-04-25T15:13:10;4.03;;;0.87;;
14903;SDS011;7543;53.148;8.234;2023-04-25T15:15:38;2.63;;;0.93;;
14903;SDS011;7543;53.148;8.234;2023-04-25T15:18:07;2.67;;;1.20;;
14903;SDS011;7543;53.148;8.234;2023-04-25T15:20:36;5.60;;;1.17;;
14903;SDS011;7543;53.148;8.234;2023-04-25T15:23:05;2.07;;;0.90;;
14903;SDS011;7543;53.148;8.234;2023-04-25T15:25:33;3.03;;;0.87;;
14903;SDS011;7543;53.148;8.234;2023-04-25T15:28:01;1.97;;;0.90;;
14903;SDS011;7543;53.148;8.234;2023-04-25T15:30:30;4.17;;;0.90;;
14903;SDS011;7543;53.148;8.234;2023-04-25T15:32:58;6.27;;;1.20;;